Time;durP1;ratioP1;P1;durP2;ratioP2;P2;SDS_P1;SDS_P2;PMS_P1;PMS_P2;Temp;Humidity;BMP_temperature;BMP_pressure;BME280_temperature;BME280_humidity;BME280_pressure;Samples;Min_cycle;Max_cycle;Signal;HPM_P1;HPM_P2
2020/12/15 00:01:47;;;;;;;3.20;2.20;;;;;15.80;100458.00;;;;5103819;28;20198;-78
2020/12/15 00:04:14;;;;;;;3.17;2.58;;;;;15.80;100454.00;;;;5070194;28;20202;-77
2020/12/15 00:06:41;;;;;;;4.72;2.40;;;;;15.70;100441.00;;;;5096939;28;20233;-78
2020/12/15 00:09:08;;;;;;;3.72;2.88;;;;;15.70;100441.00;;;;5091614;28;20205;-77
2020/12/15 00:11:35;;;;;;;3.33;2.42;;;;;15.70;100440.00;;;;5091762;28;20201;-77
2020/12/15 00:14:01;;;;;;;3.92;2.65;;;;;15.70;100443.00;;;;5109268;28;20672;-77
2020/12/15 00:16:28;;;;;;;3.42;2.33;;;;;15.80;100439.00;;;;5092972;28;20983;-78
2020/12/15 00:18:55;;;;;;;2.72;2.10;;;;;15.70;100447.00;;;;5103216;28;20197;-77
2020/12/15 00:21:23;;;;;;;3.83;2.67;;;;;15.70;100440.00;;;;5109087;28;20205;-78
2020/12/15 00:23:53;;;;;;;3.28;2.60;;;;;15.70;100444.00;;;;5108054;28;20201;-78
2020/12/15 00:26:21;;;;;;;2.60;2.20;;;;;15.70;100436.00;;;;5091220;28;20230;-78
2020/12/15 00:28:48;;;;;;;2.67;1.98;;;;;15.70;100449.00;;;;5092584;28;20584;-77
2020/12/15 00:31:16;;;;;;;2.58;2.17;;;;;15.70;100450.00;;;;5091452;28;20289;-78
2020/12/15 00:33:43;;;;;;;2.90;2.35;;;;;15.70;100452.00;;;;5108218;28;20198;-77
2020/12/15 00:36:10;;;;;;;4.35;2.38;;;;;15.70;100444.00;;;;5099112;28;20610;-77
2020/12/15 00:38:37;;;;;;;6.90;3.33;;;;;15.70;100448.00;;;;5090696;28;20194;-77
2020/12/15 00:41:05;;;;;;;3.78;2.85;;;;;15.70;100453.00;;;;5092660;28;20209;-77
2020/12/15 00:43:32;;;;;;;4.65;2.63;;;;;15.70;100440.00;;;;5092406;28;20202;-77
2020/12/15 00:45:58;;;;;;;4.15;2.55;;;;;15.70;100446.00;;;;5091897;28;20727;-77
2020/12/15 00:48:25;;;;;;;3.72;2.50;;;;;15.70;100453.00;;;;5102504;28;20198;-78
2020/12/15 00:50:52;;;;;;;3.35;2.75;;;;;15.60;100446.00;;;;5100974;28;20197;-77
2020/12/15 00:53:18;;;;;;;3.47;2.70;;;;;15.70;100444.00;;;;5103692;28;20197;-78
2020/12/15 00:55:45;;;;;;;3.20;2.47;;;;;15.60;100437.00;;;;5101726;28;20221;-78
2020/12/15 00:58:13;;;;;;;3.05;2.72;;;;;15.60;100439.00;;;;5087305;28;20581;-78
2020/12/15 01:00:39;;;;;;;3.55;3.08;;;;;15.60;100432.00;;;;5085040;28;20206;-78
2020/12/15 01:03:06;;;;;;;2.70;2.20;;;;;15.60;100428.00;;;;5098383;28;20421;-78
2020/12/15 01:05:33;;;;;;;3.03;2.67;;;;;15.60;100423.00;;;;5092355;28;20225;-78
2020/12/15 01:08:00;;;;;;;2.50;2.30;;;;;15.60;100427.00;;;;5090901;28;20190;-77
2020/12/15 01:10:26;;;;;;;3.03;2.45;;;;;15.60;100423.00;;;;5096049;28;20542;-77
2020/12/15 01:12:53;;;;;;;3.20;2.40;;;;;15.60;100429.00;;;;5102286;28;20209;-78
2020/12/15 01:15:21;;;;;;;2.70;2.45;;;;;15.60;100407.00;;;;5093251;28;20189;-77
2020/12/15 01:17:47;;;;;;;4.03;3.08;;;;;15.60;100411.00;;;;5110752;28;20216;-78
2020/12/15 01:20:14;;;;;;;4.70;2.90;;;;;15.50;100405.00;;;;5108966;28;20201;-77
2020/12/15 01:22:41;;;;;;;3.13;2.40;;;;;15.50;100405.00;;;;5090244;28;20194;-77
2020/12/15 01:25:07;;;;;;;3.58;2.83;;;;;15.50;100402.00;;;;5091012;28;20574;-78
2020/12/15 01:27:34;;;;;;;3.67;2.72;;;;;15.50;100412.00;;;;5073402;28;20268;-77
2020/12/15 01:30:01;;;;;;;3.97;2.67;;;;;15.50;100414.00;;;;5090385;28;20608;-78
2020/12/15 01:32:28;;;;;;;2.92;2.33;;;;;15.50;100419.00;;;;5100960;28;20202;-77
2020/12/15 01:34:55;;;;;;;3.42;2.40;;;;;15.50;100416.00;;;;5091286;28;20275;-77
2020/12/15 01:37:22;;;;;;;4.93;3.00;;;;;15.50;100417.00;;;;5104370;28;20202;-78
2020/12/15 01:39:48;;;;;;;3.83;2.78;;;;;15.50;100418.00;;;;5090218;28;20194;-77
2020/12/15 01:42:15;;;;;;;4.07;2.35;;;;;15.50;100412.00;;;;5103835;28;20678;-77
2020/12/15 01:44:42;;;;;;;4.63;2.58;;;;;15.50;100417.00;;;;5108439;28;20197;-78
2020/12/15 01:47:09;;;;;;;5.68;2.88;;;;;15.50;100405.00;;;;5095356;28;20237;-77
2020/12/15 01:49:37;;;;;;;3.97;3.08;;;;;15.50;100410.00;;;;5090337;28;20205;-78
2020/12/15 01:52:04;;;;;;;4.13;2.80;;;;;15.50;100423.00;;;;5090368;28;20205;-77
2020/12/15 01:54:31;;;;;;;3.47;2.22;;;;;15.50;100420.00;;;;5106617;28;20651;-77
2020/12/15 01:56:58;;;;;;;3.30;2.83;;;;;15.50;100420.00;;;;5107886;28;20617;-77
2020/12/15 01:59:27;;;;;;;3.30;2.40;;;;;15.50;100409.00;;;;5093352;28;20226;-78
2020/12/15 02:01:54;;;;;;;4.97;3.25;;;;;15.50;100415.00;;;;5091060;28;20597;-77
2020/12/15 02:04:20;;;;;;;4.63;3.35;;;;;15.50;100414.00;;;;5102065;28;20674;-78
2020/12/15 02:06:50;;;;;;;3.78;2.83;;;;;15.50;100421.00;;;;5095554;28;20778;-77
2020/12/15 02:09:18;;;;;;;3.35;2.78;;;;;15.50;100415.00;;;;5090670;28;20190;-77
2020/12/15 02:11:49;;;;;;;3.63;2.25;;;;;15.50;100416.00;;;;5100796;28;20209;-77
2020/12/15 02:14:15;;;;;;;3.25;2.47;;;;;15.50;100411.00;;;;5108279;28;20570;-77
2020/12/15 02:16:48;;;;;;;4.55;3.15;;;;;15.60;100405.00;;;;5100017;28;20560;-77
2020/12/15 02:19:16;;;;;;;6.35;3.30;;;;;15.50;100412.00;;;;5087891;28;20291;-78
2020/12/15 02:21:54;;;;;;;2.67;2.30;;;;;15.50;100413.00;;;;5090382;28;20660;-77
2020/12/15 02:24:21;;;;;;;5.10;2.92;;;;;15.60;100420.00;;;;5088674;28;20198;-77
2020/12/15 02:26:48;;;;;;;3.25;2.80;;;;;15.60;100423.00;;;;5093722;28;20650;-77
2020/12/15 02:29:15;;;;;;;3.13;2.78;;;;;15.60;100427.00;;;;5093978;28;20217;-77
2020/12/15 02:31:42;;;;;;;4.40;2.58;;;;;15.60;100421.00;;;;5091251;28;20190;-77
2020/12/15 02:34:09;;;;;;;2.75;2.30;;;;;15.60;100425.00;;;;5089760;28;20675;-77
2020/12/15 02:36:35;;;;;;;5.40;2.75;;;;;15.60;100419.00;;;;5098542;28;20259;-77
2020/12/15 02:39:08;;;;;;;3.85;2.88;;;;;15.50;100423.00;;;;5101082;28;20201;-77
2020/12/15 02:41:35;;;;;;;3.58;2.40;;;;;15.60;100422.00;;;;5095778;28;20205;-78
2020/12/15 02:44:03;;;;;;;2.95;2.65;;;;;15.60;100426.00;;;;5107598;28;20201;-77
2020/12/15 02:46:29;;;;;;;3.75;2.92;;;;;15.60;100423.00;;;;5098801;28;20240;-78
2020/12/15 02:48:56;;;;;;;2.92;2.63;;;;;15.60;100427.00;;;;5088158;28;20198;-77
2020/12/15 02:51:23;;;;;;;2.80;2.17;;;;;15.60;100434.00;;;;5096663;28;20630;-77
2020/12/15 02:53:51;;;;;;;3.28;2.72;;;;;15.60;100432.00;;;;5108059;28;20194;-77
2020/12/15 02:56:20;;;;;;;2.88;2.45;;;;;15.60;100438.00;;;;5099060;28;20203;-77
2020/12/15 02:58:47;;;;;;;3.25;2.65;;;;;15.60;100435.00;;;;5079272;28;20663;-77
2020/12/15 03:01:14;;;;;;;3.75;2.38;;;;;15.60;100441.00;;;;5091884;28;20676;-78
2020/12/15 03:03:40;;;;;;;3.00;2.40;;;;;15.60;100447.00;;;;5101747;28;20280;-77
2020/12/15 03:06:07;;;;;;;4.10;3.10;;;;;15.60;100449.00;;;;5105307;28;20236;-78
2020/12/15 03:08:34;;;;;;;3.17;2.47;;;;;15.60;100442.00;;;;5098490;28;20201;-77
2020/12/15 03:11:01;;;;;;;3.00;2.70;;;;;15.60;100450.00;;;;5104216;28;20186;-77
2020/12/15 03:13:29;;;;;;;2.67;2.45;;;;;15.60;100442.00;;;;5088919;28;21057;-77
2020/12/15 03:15:55;;;;;;;3.03;2.25;;;;;15.60;100450.00;;;;5091491;28;20201;-77
2020/12/15 03:18:23;;;;;;;2.80;2.42;;;;;15.60;100450.00;;;;5097663;28;20202;-78
2020/12/15 03:20:50;;;;;;;3.33;2.65;;;;;15.60;100452.00;;;;5089090;28;20198;-77
2020/12/15 03:23:18;;;;;;;2.40;2.20;;;;;15.60;100457.00;;;;5096625;28;20201;-77
2020/12/15 03:25:45;;;;;;;2.63;2.42;;;;;15.60;100462.00;;;;5088095;28;20230;-78
2020/12/15 03:28:11;;;;;;;3.25;2.47;;;;;15.60;100464.00;;;;5088653;28;20198;-78
2020/12/15 03:30:39;;;;;;;4.90;3.10;;;;;15.60;100456.00;;;;5087806;28;20320;-78
2020/12/15 03:33:06;;;;;;;3.40;2.60;;;;;15.60;100460.00;;;;5094302;28;20190;-78
2020/12/15 03:35:33;;;;;;;3.28;2.38;;;;;15.60;100471.00;;;;5108118;28;20578;-78
2020/12/15 03:38:00;;;;;;;3.08;2.47;;;;;15.60;100471.00;;;;5099198;28;20218;-78
2020/12/15 03:40:26;;;;;;;3.60;2.70;;;;;15.60;100472.00;;;;5071004;28;20783;-78
2020/12/15 03:42:53;;;;;;;3.13;2.50;;;;;15.60;100475.00;;;;5104302;28;20206;-77
2020/12/15 03:45:20;;;;;;;2.85;2.60;;;;;15.60;100477.00;;;;5108986;28;20205;-78
2020/12/15 03:47:48;;;;;;;3.65;2.58;;;;;15.60;100472.00;;;;5089491;28;20988;-78
2020/12/15 03:50:14;;;;;;;5.28;2.97;;;;;15.60;100473.00;;;;5087641;28;20213;-77
2020/12/15 03:52:41;;;;;;;2.90;2.20;;;;;15.60;100478.00;;;;5077713;28;20678;-78
2020/12/15 03:55:08;;;;;;;3.58;2.78;;;;;15.60;100468.00;;;;5088028;28;20190;-78
2020/12/15 03:57:35;;;;;;;4.10;2.50;;;;;15.60;100461.00;;;;5088153;28;20210;-76
2020/12/15 04:00:01;;;;;;;4.28;3.10;;;;;15.60;100462.00;;;;5088239;28;20206;-77
2020/12/15 04:02:28;;;;;;;3.65;2.38;;;;;15.60;100465.00;;;;5086942;28;20706;-78
2020/12/15 04:04:56;;;;;;;3.22;2.50;;;;;15.60;100468.00;;;;5089232;28;20205;-78
2020/12/15 04:07:22;;;;;;;3.17;2.60;;;;;15.60;100464.00;;;;5104215;28;20660;-78
2020/12/15 04:09:49;;;;;;;3.53;2.45;;;;;15.60;100462.00;;;;5090621;28;20213;-78
2020/12/15 04:12:16;;;;;;;3.65;2.25;;;;;15.70;100463.00;;;;5087459;28;20198;-78
2020/12/15 04:14:42;;;;;;;3.25;2.55;;;;;15.70;100470.00;;;;5088774;28;20668;-78
2020/12/15 04:17:09;;;;;;;2.72;2.22;;;;;15.70;100472.00;;;;5087232;28;20202;-78
2020/12/15 04:19:36;;;;;;;3.30;2.60;;;;;15.70;100470.00;;;;5091672;28;20194;-78
2020/12/15 04:22:04;;;;;;;3.03;2.55;;;;;15.70;100465.00;;;;5087630;28;20217;-77
2020/12/15 04:24:31;;;;;;;2.30;2.05;;;;;15.70;100472.00;;;;5066960;28;20202;-77
2020/12/15 04:26:58;;;;;;;3.42;2.38;;;;;15.70;100476.00;;;;5087088;28;20617;-77
2020/12/15 04:29:25;;;;;;;4.80;2.50;;;;;15.70;100472.00;;;;5088724;28;20202;-77
2020/12/15 04:31:52;;;;;;;4.60;2.78;;;;;15.70;100468.00;;;;5105891;28;20205;-78
2020/12/15 04:34:18;;;;;;;2.88;2.53;;;;;15.70;100476.00;;;;5107693;28;20209;-77
2020/12/15 04:36:45;;;;;;;4.53;3.10;;;;;15.70;100467.00;;;;5096187;28;20223;-77
2020/12/15 04:39:13;;;;;;;3.17;2.42;;;;;15.60;100474.00;;;;5095977;28;20202;-77
2020/12/15 04:41:40;;;;;;;2.80;2.35;;;;;15.70;100472.00;;;;5087652;28;20202;-77
2020/12/15 04:44:08;;;;;;;3.78;2.25;;;;;15.70;100473.00;;;;5087761;28;20194;-77
2020/12/15 04:46:43;;;;;;;2.55;1.92;;;;;15.60;100472.00;;;;5102909;28;20221;-78
2020/12/15 04:49:15;;;;;;;2.80;2.08;;;;;15.70;100478.00;;;;5092122;28;20615;-77
2020/12/15 04:51:56;;;;;;;3.05;2.03;;;;;15.60;100484.00;;;;5090387;28;20202;-77
2020/12/15 04:54:30;;;;;;;3.47;2.15;;;;;15.60;100486.00;;;;5103361;28;20205;-77
2020/12/15 04:57:02;;;;;;;3.15;2.22;;;;;15.70;100473.00;;;;5091934;28;20717;-77
2020/12/15 04:59:34;;;;;;;3.90;2.53;;;;;15.60;100472.00;;;;5094995;28;20849;-77
2020/12/15 05:02:03;;;;;;;2.92;2.20;;;;;15.70;100469.00;;;;5091064;28;20218;-77
2020/12/15 05:04:36;;;;;;;2.63;2.00;;;;;15.60;100470.00;;;;5102737;28;20288;-77
2020/12/15 05:07:06;;;;;;;3.10;2.13;;;;;15.60;100472.00;;;;5091214;28;20214;-77
2020/12/15 05:09:34;;;;;;;2.45;2.13;;;;;15.60;100472.00;;;;5101592;28;20205;-77
2020/12/15 05:12:02;;;;;;;2.17;1.73;;;;;15.60;100476.00;;;;5110733;28;20201;-77
2020/12/15 05:14:29;;;;;;;3.72;2.15;;;;;15.60;100476.00;;;;5094086;28;20625;-77
2020/12/15 05:16:56;;;;;;;2.60;1.92;;;;;15.60;100464.00;;;;5091992;28;20664;-76
2020/12/15 05:19:22;;;;;;;2.33;1.85;;;;;15.60;100466.00;;;;5099870;28;20190;-77
2020/12/15 05:21:56;;;;;;;2.08;1.65;;;;;15.60;100476.00;;;;5110093;28;20202;-77
2020/12/15 05:24:26;;;;;;;2.25;1.90;;;;;15.60;100478.00;;;;5097736;28;20638;-77
2020/12/15 05:26:55;;;;;;;2.38;1.80;;;;;15.60;100470.00;;;;5089988;28;20750;-77
2020/12/15 05:29:22;;;;;;;2.55;1.77;;;;;15.60;100471.00;;;;5094119;28;20190;-77
2020/12/15 05:31:49;;;;;;;3.00;1.77;;;;;15.60;100473.00;;;;5089167;28;20206;-77
2020/12/15 05:34:22;;;;;;;2.97;2.10;;;;;15.60;100472.00;;;;5102197;28;20611;-77
2020/12/15 05:36:53;;;;;;;2.20;1.50;;;;;15.60;100476.00;;;;5110181;28;20205;-77
2020/12/15 05:39:20;;;;;;;3.10;1.67;;;;;15.60;100475.00;;;;5096089;28;20211;-77
2020/12/15 05:41:49;;;;;;;2.55;1.77;;;;;15.60;100472.00;;;;5089073;28;20452;-77
2020/12/15 05:44:26;;;;;;;3.58;2.00;;;;;15.50;100474.00;;;;5090369;28;20289;-77
2020/12/15 05:46:58;;;;;;;2.47;1.75;;;;;15.60;100462.00;;;;5089747;28;20316;-77
2020/12/15 05:49:27;;;;;;;2.58;1.98;;;;;15.60;100467.00;;;;5090043;28;20194;-77
2020/12/15 05:51:55;;;;;;;5.22;2.13;;;;;15.60;100474.00;;;;5089337;28;20198;-77
2020/12/15 05:54:21;;;;;;;3.70;2.20;;;;;15.60;100476.00;;;;5101725;28;20202;-77
2020/12/15 05:56:59;;;;;;;3.17;2.50;;;;;15.60;100474.00;;;;5109730;28;20198;-77
2020/12/15 05:59:26;;;;;;;2.58;1.85;;;;;15.60;100482.00;;;;5101760;28;20232;-77
2020/12/15 06:01:55;;;;;;;2.78;2.10;;;;;15.60;100481.00;;;;5096849;28;20193;-77
2020/12/15 06:04:22;;;;;;;4.57;2.10;;;;;15.60;100480.00;;;;5097357;28;20199;-77
2020/12/15 06:06:49;;;;;;;2.80;1.60;;;;;15.60;100480.00;;;;5090367;28;20221;-77
2020/12/15 06:09:17;;;;;;;2.65;1.85;;;;;15.50;100489.00;;;;5088929;28;20235;-77
2020/12/15 06:11:46;;;;;;;2.55;1.73;;;;;15.50;100496.00;;;;5090930;28;20189;-77
2020/12/15 06:14:14;;;;;;;3.05;2.33;;;;;15.50;100488.00;;;;5092890;28;20206;-77
2020/12/15 06:16:42;;;;;;;3.25;2.15;;;;;15.50;100485.00;;;;5089274;28;20217;-78
2020/12/15 06:19:11;;;;;;;2.25;1.77;;;;;15.60;100486.00;;;;5088622;28;20198;-78
2020/12/15 06:21:46;;;;;;;1.80;1.52;;;;;15.60;100478.00;;;;5094005;28;20201;-77
2020/12/15 06:24:24;;;;;;;3.40;2.05;;;;;15.50;100489.00;;;;5088830;28;20185;-77
2020/12/15 06:26:59;;;;;;;5.22;2.05;;;;;15.50;100483.00;;;;5088760;28;20271;-77
2020/12/15 06:29:31;;;;;;;2.35;2.10;;;;;15.50;100484.00;;;;5089481;28;20200;-76
2020/12/15 06:31:59;;;;;;;2.60;2.00;;;;;15.50;100487.00;;;;5085732;28;20244;-77
2020/12/15 06:34:27;;;;;;;3.10;1.77;;;;;15.50;100487.00;;;;5097287;28;20202;-76
2020/12/15 06:36:55;;;;;;;2.65;1.73;;;;;15.60;100491.00;;;;5093533;28;20201;-76
2020/12/15 06:39:23;;;;;;;6.68;4.20;;;;;15.50;100489.00;;;;5088793;28;20444;-78
2020/12/15 06:42:00;;;;;;;2.53;2.10;;;;;15.60;100500.00;;;;5089131;28;20324;-76
2020/12/15 06:44:32;;;;;;;3.53;2.15;;;;;15.60;100506.00;;;;5088692;28;20206;-76
2020/12/15 06:47:01;;;;;;;2.50;1.98;;;;;15.60;100505.00;;;;5089194;28;20228;-76
2020/12/15 06:49:29;;;;;;;3.75;2.13;;;;;15.60;100506.00;;;;5088650;28;20214;-76
2020/12/15 06:51:56;;;;;;;2.83;2.20;;;;;15.60;100512.00;;;;5088686;28;20737;-76
2020/12/15 06:54:27;;;;;;;3.40;2.47;;;;;15.60;100508.00;;;;5089281;28;20576;-76
2020/12/15 06:57:02;;;;;;;2.50;2.00;;;;;15.60;100509.00;;;;5088337;28;20209;-76
2020/12/15 06:59:36;;;;;;;2.85;2.10;;;;;15.60;100519.00;;;;5088357;28;20795;-76
2020/12/15 07:02:11;;;;;;;3.35;2.30;;;;;15.60;100520.00;;;;5088396;28;20619;-76
2020/12/15 07:04:43;;;;;;;2.70;2.03;;;;;15.60;100514.00;;;;5088753;28;20323;-76
2020/12/15 07:07:10;;;;;;;3.10;2.20;;;;;15.60;100519.00;;;;5088131;28;20226;-76
2020/12/15 07:09:38;;;;;;;5.22;2.55;;;;;15.60;100517.00;;;;5087918;28;20206;-76
2020/12/15 07:12:10;;;;;;;3.15;1.98;;;;;15.60;100514.00;;;;5088272;28;20210;-76
2020/12/15 07:14:37;;;;;;;3.42;1.98;;;;;15.60;100512.00;;;;5088290;28;20202;-76
2020/12/15 07:17:03;;;;;;;2.85;1.80;;;;;15.60;100515.00;;;;5087909;28;20201;-76
2020/12/15 07:19:31;;;;;;;2.72;2.50;;;;;15.60;100513.00;;;;5087848;28;20213;-76
2020/12/15 07:21:58;;;;;;;3.15;2.38;;;;;15.60;100512.00;;;;5088699;28;20247;-76
2020/12/15 07:24:26;;;;;;;2.45;1.92;;;;;15.60;100523.00;;;;5087782;28;20197;-76
2020/12/15 07:26:53;;;;;;;2.35;1.98;;;;;15.60;100524.00;;;;5088325;28;20222;-76
2020/12/15 07:29:20;;;;;;;4.72;2.70;;;;;15.60;100524.00;;;;5087631;28;20243;-76
2020/12/15 07:31:47;;;;;;;3.10;2.60;;;;;15.60;100526.00;;;;5087261;28;20206;-76
2020/12/15 07:34:16;;;;;;;2.45;1.83;;;;;15.60;100533.00;;;;5086793;28;20786;-76
2020/12/15 07:36:45;;;;;;;3.35;2.38;;;;;15.60;100524.00;;;;5067795;28;20611;-76
2020/12/15 07:39:12;;;;;;;3.70;2.17;;;;;15.60;100520.00;;;;5067556;28;20198;-76
2020/12/15 07:41:40;;;;;;;2.58;1.83;;;;;15.60;100530.00;;;;5080938;28;20256;-78
2020/12/15 07:44:09;;;;;;;2.55;2.05;;;;;15.60;100524.00;;;;5096550;28;20197;-77
2020/12/15 07:46:37;;;;;;;4.13;2.40;;;;;15.60;100526.00;;;;5090978;28;20271;-77
2020/12/15 07:49:04;;;;;;;3.33;2.25;;;;;15.60;100526.00;;;;5087996;28;20206;-77
2020/12/15 07:51:37;;;;;;;3.72;2.17;;;;;15.60;100530.00;;;;5087728;28;20194;-78
2020/12/15 07:54:05;;;;;;;2.33;1.85;;;;;15.60;100536.00;;;;5087778;28;20870;-77
2020/12/15 07:56:32;;;;;;;2.30;1.83;;;;;15.60;100537.00;;;;5088900;28;20206;-77
2020/12/15 07:59:00;;;;;;;3.05;2.40;;;;;15.60;100547.00;;;;5107289;28;20253;-78
2020/12/15 08:01:27;;;;;;;3.53;2.13;;;;;15.60;100547.00;;;;5100075;28;20205;-78
2020/12/15 08:04:02;;;;;;;3.40;2.63;;;;;15.60;100557.00;;;;5097103;28;20267;-77
2020/12/15 08:06:31;;;;;;;4.47;2.50;;;;;15.60;100565.00;;;;5089906;28;20221;-78
2020/12/15 08:08:59;;;;;;;3.25;1.90;;;;;15.60;100559.00;;;;5093422;28;20198;-77
2020/12/15 08:11:27;;;;;;;4.72;2.20;;;;;15.60;100571.00;;;;5098194;28;20255;-78
2020/12/15 08:13:54;;;;;;;2.85;2.33;;;;;15.60;100570.00;;;;5088425;28;20198;-78
2020/12/15 08:16:22;;;;;;;3.50;2.47;;;;;15.70;100574.00;;;;5090015;28;20190;-78
2020/12/15 08:18:49;;;;;;;2.30;2.10;;;;;15.70;100588.00;;;;5087564;28;20622;-77
2020/12/15 08:21:17;;;;;;;3.60;2.67;;;;;15.70;100594.00;;;;5086871;28;20799;-77
2020/12/15 08:23:51;;;;;;;4.03;2.42;;;;;15.70;100596.00;;;;5088237;28;20737;-77
2020/12/15 08:26:20;;;;;;;3.03;2.15;;;;;15.70;100605.00;;;;5090051;28;20587;-77
2020/12/15 08:28:48;;;;;;;3.72;2.80;;;;;15.70;100608.00;;;;5091718;28;20210;-78
2020/12/15 08:31:15;;;;;;;2.85;1.88;;;;;15.70;100618.00;;;;5095707;28;20195;-78
2020/12/15 08:33:42;;;;;;;3.22;2.15;;;;;15.70;100612.00;;;;5110937;28;20186;-77
2020/12/15 08:36:11;;;;;;;3.20;2.25;;;;;15.70;100615.00;;;;5105717;28;20198;-78
2020/12/15 08:38:42;;;;;;;3.08;2.40;;;;;15.70;100611.00;;;;5103064;28;20201;-77
2020/12/15 08:41:14;;;;;;;2.90;2.22;;;;;15.70;100610.00;;;;5095738;28;20309;-78
2020/12/15 08:43:42;;;;;;;3.53;2.28;;;;;15.70;100621.00;;;;5100463;28;20186;-78
2020/12/15 08:46:17;;;;;;;3.53;2.33;;;;;15.70;100613.00;;;;5102603;28;20202;-78
2020/12/15 08:48:44;;;;;;;2.88;2.25;;;;;15.70;100622.00;;;;5096895;28;20205;-77
2020/12/15 08:51:15;;;;;;;3.22;2.45;;;;;15.70;100626.00;;;;5090294;28;20194;-78
2020/12/15 08:53:42;;;;;;;4.10;2.60;;;;;15.70;100624.00;;;;5087181;28;20416;-78
2020/12/15 08:56:16;;;;;;;3.70;2.22;;;;;15.70;100627.00;;;;5094491;28;20719;-78
2020/12/15 08:58:44;;;;;;;3.30;2.53;;;;;15.70;100624.00;;;;5102594;28;20587;-78
2020/12/15 09:01:11;;;;;;;10.23;2.58;;;;;15.70;100636.00;;;;5093478;28;20675;-78
2020/12/15 09:03:47;;;;;;;2.85;2.25;;;;;15.70;100639.00;;;;5091689;28;20194;-78
2020/12/15 09:06:14;;;;;;;2.50;2.00;;;;;15.70;100646.00;;;;5095142;28;20197;-78
2020/12/15 09:08:49;;;;;;;2.72;2.00;;;;;15.70;100645.00;;;;5089598;28;20664;-77
2020/12/15 09:11:17;;;;;;;3.35;2.33;;;;;15.80;100647.00;;;;5097028;28;20269;-78
2020/12/15 09:13:57;;;;;;;3.22;2.28;;;;;15.70;100649.00;;;;5098843;28;20217;-77
2020/12/15 09:16:29;;;;;;;4.22;2.65;;;;;15.80;100662.00;;;;5096927;28;20262;-77
2020/12/15 09:18:57;;;;;;;3.05;2.17;;;;;15.80;100665.00;;;;5090009;28;20757;-78
2020/12/15 09:21:24;;;;;;;2.53;2.03;;;;;15.80;100671.00;;;;5097222;28;20296;-78
2020/12/15 09:23:53;;;;;;;3.63;2.38;;;;;15.80;100670.00;;;;5090202;28;20239;-78
2020/12/15 09:26:22;;;;;;;3.10;2.75;;;;;15.80;100662.00;;;;5087896;28;20219;-78
2020/12/15 09:28:49;;;;;;;4.63;2.55;;;;;15.90;100650.00;;;;5095751;28;20202;-78
2020/12/15 09:31:18;;;;;;;4.35;3.03;;;;;15.90;100649.00;;;;5089234;28;20633;-78
2020/12/15 09:33:46;;;;;;;3.95;2.95;;;;;15.90;100660.00;;;;5094787;28;20202;-78
2020/12/15 09:36:14;;;;;;;3.45;2.70;;;;;15.90;100662.00;;;;5092553;28;20194;-78
2020/12/15 09:38:41;;;;;;;3.38;2.70;;;;;15.90;100666.00;;;;5100048;28;20201;-78
2020/12/15 09:41:08;;;;;;;4.95;2.95;;;;;16.00;100668.00;;;;5089196;28;20301;-78
2020/12/15 09:43:34;;;;;;;3.70;3.30;;;;;16.00;100677.00;;;;5089757;28;20254;-78
2020/12/15 09:46:02;;;;;;;4.47;3.47;;;;;16.00;100682.00;;;;5089330;28;20716;-78
2020/12/15 09:48:29;;;;;;;3.28;2.80;;;;;16.00;100685.00;;;;5089038;28;20231;-78
2020/12/15 09:50:58;;;;;;;4.20;2.92;;;;;16.00;100675.00;;;;5090382;28;20263;-78
2020/12/15 09:53:26;;;;;;;3.17;2.78;;;;;16.00;100681.00;;;;5088851;28;20212;-78
2020/12/15 09:55:52;;;;;;;4.03;2.80;;;;;16.10;100688.00;;;;5100578;28;20204;-77
2020/12/15 09:58:19;;;;;;;3.88;3.00;;;;;16.10;100688.00;;;;5093577;28;20233;-77
2020/12/15 10:00:46;;;;;;;5.38;3.15;;;;;16.10;100693.00;;;;5099136;28;20688;-78
2020/12/15 10:03:13;;;;;;;3.20;2.67;;;;;16.10;100694.00;;;;5096633;28;20198;-78
2020/12/15 10:05:41;;;;;;;5.32;3.05;;;;;16.10;100695.00;;;;5090364;28;20198;-78
2020/12/15 10:08:08;;;;;;;4.70;3.45;;;;;16.20;100694.00;;;;5089428;28;20313;-78
2020/12/15 10:10:35;;;;;;;9.88;2.60;;;;;16.20;100683.00;;;;5088750;28;20202;-78
2020/12/15 10:13:02;;;;;;;3.75;3.20;;;;;16.20;100685.00;;;;5084306;28;20202;-78
2020/12/15 10:15:29;;;;;;;3.85;3.13;;;;;16.20;100692.00;;;;5082639;28;20302;-78
2020/12/15 10:17:56;;;;;;;4.20;3.35;;;;;16.30;100694.00;;;;5094755;28;20251;-78
2020/12/15 10:20:23;;;;;;;6.22;3.33;;;;;16.30;100700.00;;;;5092427;28;20634;-78
2020/12/15 10:22:50;;;;;;;4.15;3.00;;;;;16.30;100693.00;;;;5088933;28;20290;-78
2020/12/15 10:25:17;;;;;;;4.88;3.05;;;;;16.30;100697.00;;;;5088566;28;20206;-78
2020/12/15 10:27:45;;;;;;;4.07;2.58;;;;;16.30;100697.00;;;;5090244;28;20229;-78
2020/12/15 10:30:12;;;;;;;4.85;3.65;;;;;16.30;100699.00;;;;5089119;28;20205;-78
2020/12/15 10:32:39;;;;;;;4.07;3.15;;;;;16.40;100695.00;;;;5096018;28;20790;-77
2020/12/15 10:35:06;;;;;;;5.78;3.47;;;;;16.40;100695.00;;;;5102915;28;20243;-78
2020/12/15 10:37:32;;;;;;;3.97;3.03;;;;;16.40;100688.00;;;;5096484;28;20213;-78
2020/12/15 10:40:00;;;;;;;4.45;2.80;;;;;16.40;100700.00;;;;5089563;28;20708;-77
2020/12/15 10:42:27;;;;;;;3.92;3.15;;;;;16.40;100698.00;;;;5091168;28;20191;-77
2020/12/15 10:44:54;;;;;;;5.18;3.22;;;;;16.40;100702.00;;;;5102438;28;20629;-78
2020/12/15 10:47:21;;;;;;;4.22;3.75;;;;;16.40;100705.00;;;;5102143;28;20224;-77
2020/12/15 10:49:48;;;;;;;6.05;3.70;;;;;16.40;100698.00;;;;5088066;28;20205;-78
2020/12/15 10:52:14;;;;;;;4.07;3.67;;;;;16.50;100694.00;;;;5093397;28;20202;-78
2020/12/15 10:54:41;;;;;;;3.75;3.28;;;;;16.50;100705.00;;;;5088154;28;20664;-78
2020/12/15 10:57:08;;;;;;;4.78;3.80;;;;;16.50;100705.00;;;;5093570;28;20194;-78
2020/12/15 10:59:35;;;;;;;6.60;3.80;;;;;16.50;100702.00;;;;5097162;28;20249;-78
2020/12/15 11:02:02;;;;;;;4.95;3.75;;;;;16.50;100711.00;;;;5088509;28;20194;-78
2020/12/15 11:04:29;;;;;;;3.67;3.25;;;;;16.60;100709.00;;;;5094158;28;20194;-78
2020/12/15 11:06:56;;;;;;;4.50;4.05;;;;;16.60;100706.00;;;;5093731;28;20687;-77
2020/12/15 11:09:22;;;;;;;4.93;4.00;;;;;16.60;100703.00;;;;5089697;28;20276;-78
2020/12/15 11:11:49;;;;;;;7.38;3.83;;;;;16.60;100709.00;;;;5087160;28;20202;-77
2020/12/15 11:14:16;;;;;;;3.60;2.80;;;;;16.60;100708.00;;;;5089640;28;20781;-78
2020/12/15 11:16:45;;;;;;;3.33;2.75;;;;;16.60;100706.00;;;;5087388;28;20194;-77
2020/12/15 11:19:12;;;;;;;4.72;3.40;;;;;16.60;100708.00;;;;5089990;28;20214;-77
2020/12/15 11:21:39;;;;;;;5.20;4.13;;;;;16.60;100715.00;;;;5086831;28;20202;-77
2020/12/15 11:24:06;;;;;;;5.32;3.97;;;;;16.60;100692.00;;;;5087788;28;20194;-78
2020/12/15 11:26:32;;;;;;;5.28;3.90;;;;;16.70;100691.00;;;;5086567;28;20222;-78
2020/12/15 11:28:59;;;;;;;4.70;3.40;;;;;16.70;100711.00;;;;5091664;28;20671;-78
2020/12/15 11:31:26;;;;;;;5.90;3.88;;;;;16.70;100712.00;;;;5096358;28;20198;-77
2020/12/15 11:33:53;;;;;;;4.75;4.05;;;;;16.70;100724.00;;;;5091862;28;20748;-77
2020/12/15 11:36:21;;;;;;;6.50;3.95;;;;;16.70;100728.00;;;;5100715;28;20213;-77
2020/12/15 11:38:48;;;;;;;3.83;3.50;;;;;16.70;100727.00;;;;5085500;28;20667;-77
2020/12/15 11:41:14;;;;;;;6.53;4.57;;;;;16.70;100731.00;;;;5082699;28;20218;-77
2020/12/15 11:43:41;;;;;;;4.30;3.85;;;;;16.70;100722.00;;;;5087964;28;20668;-77
2020/12/15 11:46:08;;;;;;;4.95;4.18;;;;;16.70;100726.00;;;;5094568;28;20255;-78
2020/12/15 11:48:34;;;;;;;4.43;3.55;;;;;16.70;100734.00;;;;5091947;28;20873;-77
2020/12/15 11:51:01;;;;;;;4.82;3.95;;;;;16.70;100728.00;;;;5087564;28;20217;-77
2020/12/15 11:53:29;;;;;;;6.70;4.25;;;;;16.70;100723.00;;;;5095485;28;20667;-78
2020/12/15 11:55:56;;;;;;;3.83;3.30;;;;;16.70;100732.00;;;;5087130;28;20672;-77
2020/12/15 11:58:23;;;;;;;3.88;3.40;;;;;16.70;100736.00;;;;5087209;28;20707;-77
2020/12/15 12:00:50;;;;;;;5.28;3.63;;;;;16.70;100740.00;;;;5088320;28;20197;-77
2020/12/15 12:03:16;;;;;;;7.28;4.32;;;;;16.70;100742.00;;;;5090834;28;20209;-77
2020/12/15 12:05:43;;;;;;;5.50;4.30;;;;;16.70;100747.00;;;;5093468;28;20202;-77
2020/12/15 12:08:10;;;;;;;5.15;3.38;;;;;16.60;100749.00;;;;5100978;28;20598;-78
2020/12/15 12:10:37;;;;;;;4.63;3.42;;;;;16.60;100748.00;;;;5090638;28;20209;-78
2020/12/15 12:13:04;;;;;;;4.82;3.72;;;;;16.60;100752.00;;;;5096725;28;20202;-78